Time,TemperatureF,DewpointF,PressureIn,WindDirection,WindDirectionDegrees,WindSpeedMPH,WindSpeedGustMPH,Humidity,HourlyPrecipIn,Conditions,Clouds,dailyrainin,SoftwareType,DateUTC
2013-02-16 00:03:00,20.3,16.2,30.38,NNW,336,6.9,6.9,84,0.00,CLR,SKC,0.00,WeatherDisplay:10.37,2013-02-16 06:03:00,
2013-02-16 00:08:00,19.9,15.8,30.38,NNW,337,6.9,6.9,84,0.00,CLR,SKC,0.00,WeatherDisplay:10.37,2013-02-16 06:08:00,
2013-02-16 00:13:00,19.5,15.5,30.38,NNW,333,5.8,5.8,84,0.00,CLR,SKC,0.00,WeatherDisplay:10.37,2013-02-16 06:13:00,
2013-02-16 00:18:00,19.2,15.4,30.38,NNW,339,3.5,3.5,85,0.00,CLR,SKC,0.00,WeatherDisplay:10.37,2013-02-16 06:18:00,
2013-02-16 00:23:00,18.9,15.1,30.38,NNW,341,2.3,2.3,85,0.00,CLR,SKC,0.00,WeatherDisplay:10.37,2013-02-16 06:23:00,
2013-02-16 00:28:00,18.6,14.6,30.38,NNW,341,1.1,0.0,84,0.00,CLR,SKC,0.00,WeatherDisplay:10.37,2013-02-16 06:28:00,
2013-02-16 00:33:00,18.0,14.3,30.38,NNW,341,2.3,0.0,85,0.00,CLR,SKC,0.00,WeatherDisplay:10.37,2013-02-16 06:33:00,
2013-02-16 00:38:00,17.7,14.0,30.38,NNW,341,1.1,1.1,85,0.00,CLR,SKC,0.00,WeatherDisplay:10.37,2013-02-16 06:38:00,
2013-02-16 00:43:00,17.2,13.5,30.38,NNW,341,1.1,0.0,85,0.00,CLR,SKC,0.00,WeatherDisplay:10.37,2013-02-16 06:43:00,
2013-02-16 00:48:00,17.2,13.5,30.38,NNW,341,1.1,1.1,85,0.00,CLR,SKC,0.00,WeatherDisplay:10.37,2013-02-16 06:48:00,
2013-02-16 00:53:00,17.0,13.3,30.38,NNW,341,2.3,2.3,85,0.00,CLR,SKC,0.00,WeatherDisplay:10.37,2013-02-16 06:53:00,
2013-02-16 00:58:00,17.0,13.3,30.38,NNW,341,0.0,0.0,85,0.00,CLR,SKC,0.00,WeatherDisplay:10.37,2013-02-16 06:58:00,
2013-02-16 01:03:00,16.9,13.2,30.38,NNW,341,1.1,0.0,85,0.00,CLR,SKC,0.00,WeatherDisplay:10.37,2013-02-16 07:03:00,
2013-02-16 01:08:00,16.9,13.2,30.37,NNW,341,0.0,0.0,85,0.00,CLR,SKC,0.00,WeatherDisplay:10.37,2013-02-16 07:08:00,
2013-02-16 01:13:00,16.7,13.0,30.37,NNW,341,0.0,0.0,85,0.00,CLR,SKC,0.00,WeatherDisplay:10.37,2013-02-16 07:13:00,
2013-02-16 01:18:00,16.4,12.7,30.37,NNW,341,0.0,0.0,85,0.00,CLR,SKC,0.00,WeatherDisplay:10.37,2013-02-16 07:18:00,
2013-02-16 01:23:00,16.2,12.5,30.37,NNW,341,0.0,0.0,85,0.00,CLR,SKC,0.00,WeatherDisplay:10.37,2013-02-16 07:23:00,
2013-02-16 01:28:00,15.9,12.2,30.37,NNW,341,0.0,0.0,85,0.00,CLR,SKC,0.00,WeatherDisplay:10.37,2013-02-16 07:28:00,
2013-02-16 01:33:00,15.6,11.9,30.37,NNW,341,0.0,0.0,85,0.00,CLR,SKC,0.00,WeatherDisplay:10.37,2013-02-16 07:33:00,
2013-02-16 01:38:00,15.4,11.7,30.37,NNW,341,1.1,1.1,85,0.00,CLR,SKC,0.00,WeatherDisplay:10.37,2013-02-16 07:38:00,
2013-02-16 01:43:00,15.1,11.4,30.37,NNW,341,1.1,1.1,85,0.00,CLR,SKC,0.00,WeatherDisplay:10.37,2013-02-16 07:43:00,
2013-02-16 01:48:00,14.9,11.2,30.37,NNW,341,1.1,1.1,85,0.00,CLR,SKC,0.00,WeatherDisplay:10.37,2013-02-16 07:48:00,
2013-02-16 01:53:00,15.2,11.8,30.37,NNW,341,2.3,2.3,86,0.00,CLR,SKC,0.00,WeatherDisplay:10.37,2013-02-16 07:53:00,
2013-02-16 01:58:00,15.4,12.0,30.37,NNW,341,2.3,2.3,86,0.00,CLR,SKC,0.00,WeatherDisplay:10.37,2013-02-16 07:58:00,
2013-02-16 02:03:00,15.1,11.7,30.36,NNW,341,1.1,1.1,86,0.00,CLR,SKC,0.00,WeatherDisplay:10.37,2013-02-16 08:03:00,
2013-02-16 02:08:00,15.1,11.7,30.36,NNW,341,1.1,1.1,86,0.00,CLR,SKC,0.00,WeatherDisplay:10.37,2013-02-16 08:08:00,
2013-02-16 02:13:00,14.9,11.5,30.36,NNW,341,0.0,0.0,86,0.00,CLR,SKC,0.00,WeatherDisplay:10.37,2013-02-16 08:13:00,
2013-02-16 02:18:00,14.8,11.4,30.35,NNW,341,1.1,1.1,86,0.00,CLR,SKC,0.00,WeatherDisplay:10.37,2013-02-16 08:18:00,
2013-02-16 02:23:00,14.4,11.0,30.35,NNW,341,0.0,0.0,86,0.00,CLR,SKC,0.00,WeatherDisplay:10.37,2013-02-16 08:23:00,
2013-02-16 02:28:00,14.1,10.4,30.35,NNW,341,1.1,1.1,85,0.00,CLR,SKC,0.00,WeatherDisplay:10.37,2013-02-16 08:28:00,
2013-02-16 02:33:00,13.8,10.1,30.36,NNW,341,0.0,0.0,85,0.00,CLR,SKC,0.00,WeatherDisplay:10.37,2013-02-16 08:33:00,
2013-02-16 02:38:00,13.5,9.8,30.36,NNW,341,1.1,0.0,85,0.00,CLR,SKC,0.00,WeatherDisplay:10.37,2013-02-16 08:38:00,
2013-02-16 02:43:00,13.3,9.9,30.36,NNW,340,0.0,0.0,86,0.00,CLR,SKC,0.00,WeatherDisplay:10.37,2013-02-16 08:43:00,
2013-02-16 02:48:00,13.3,9.9,30.36,NNW,341,0.0,0.0,86,0.00,CLR,SKC,0.00,WeatherDisplay:10.37,2013-02-16 08:48:00,
2013-02-16 02:54:00,13.3,9.9,30.36,NNW,341,0.0,0.0,86,0.00,CLR,SKC,0.00,WeatherDisplay:10.37,2013-02-16 08:54:00,
2013-02-16 02:59:00,13.3,9.9,30.35,NNW,341,0.0,0.0,86,0.00,CLR,SKC,0.00,WeatherDisplay:10.37,2013-02-16 08:59:00,
2013-02-16 03:04:00,13.3,9.9,30.35,NNW,341,0.0,0.0,86,0.00,CLR,SKC,0.00,WeatherDisplay:10.37,2013-02-16 09:04:00,
2013-02-16 03:09:00,13.1,9.7,30.35,NNW,341,0.0,0.0,86,0.00,CLR,SKC,0.00,WeatherDisplay:10.37,2013-02-16 09:09:00,
2013-02-16 03:14:00,12.9,9.2,30.35,NNW,341,0.0,0.0,85,0.00,CLR,SKC,0.00,WeatherDisplay:10.37,2013-02-16 09:14:00,
2013-02-16 03:19:00,12.8,9.4,30.35,NNW,341,0.0,0.0,86,0.00,CLR,SKC,0.00,WeatherDisplay:10.37,2013-02-16 09:19:00,
2013-02-16 03:24:00,12.8,9.4,30.35,NNW,341,2.3,2.3,86,0.00,CLR,SKC,0.00,WeatherDisplay:10.37,2013-02-16 09:24:00,
2013-02-16 03:29:00,12.9,9.5,30.35,NNW,341,1.1,1.1,86,0.00,CLR,SKC,0.00,WeatherDisplay:10.37,2013-02-16 09:29:00,
2013-02-16 03:34:00,13.1,9.7,30.35,NNW,341,1.1,0.0,86,0.00,CLR,SKC,0.00,WeatherDisplay:10.37,2013-02-16 09:34:00,
2013-02-16 03:39:00,12.9,9.5,30.35,NNW,341,0.0,0.0,86,0.00,CLR,SKC,0.00,WeatherDisplay:10.37,2013-02-16 09:39:00,
2013-02-16 03:44:00,12.9,9.5,30.35,NNW,341,0.0,0.0,86,0.00,CLR,SKC,0.00,WeatherDisplay:10.37,2013-02-16 09:44:00,
2013-02-16 03:49:00,12.8,9.4,30.35,NNW,341,0.0,0.0,86,0.00,CLR,SKC,0.00,WeatherDisplay:10.37,2013-02-16 09:49:00,
2013-02-16 03:54:00,12.6,9.2,30.34,NNW,341,0.0,0.0,86,0.00,CLR,SKC,0.00,WeatherDisplay:10.37,2013-02-16 09:54:00,
2013-02-16 03:59:00,12.4,8.7,30.34,NNW,341,0.0,0.0,85,0.00,CLR,SKC,0.00,WeatherDisplay:10.37,2013-02-16 09:59:00,
2013-02-16 04:04:00,12.3,8.9,30.35,NNW,341,0.0,0.0,86,0.00,CLR,SKC,0.00,WeatherDisplay:10.37,2013-02-16 10:04:00,
2013-02-16 04:09:00,12.4,9.0,30.34,NNW,341,0.0,0.0,86,0.00,CLR,SKC,0.00,WeatherDisplay:10.37,2013-02-16 10:09:00,
2013-02-16 04:14:00,12.4,9.0,30.34,NNW,341,0.0,0.0,86,0.00,CLR,SKC,0.00,WeatherDisplay:10.37,2013-02-16 10:14:00,
2013-02-16 04:19:00,12.3,8.7,30.34,NNW,341,0.0,0.0,85,0.00,CLR,SKC,0.00,WeatherDisplay:10.37,2013-02-16 10:19:00,
2013-02-16 04:24:00,12.1,8.5,30.34,NNW,341,0.0,0.0,85,0.00,CLR,SKC,0.00,WeatherDisplay:10.37,2013-02-16 10:24:00,
2013-02-16 04:29:00,12.3,8.9,30.34,NNW,341,0.0,0.0,86,0.00,CLR,SKC,0.00,WeatherDisplay:10.37,2013-02-16 10:29:00,
2013-02-16 04:34:00,12.1,8.5,30.34,NNW,341,1.1,0.0,85,0.00,CLR,SKC,0.00,WeatherDisplay:10.37,2013-02-16 10:34:00,
2013-02-16 04:39:00,12.1,8.5,30.34,NNW,341,1.1,0.0,85,0.00,CLR,SKC,0.00,WeatherDisplay:10.37,2013-02-16 10:39:00,
2013-02-16 04:44:00,12.1,8.5,30.34,NNW,341,0.0,0.0,85,0.00,CLR,SKC,0.00,WeatherDisplay:10.37,2013-02-16 10:44:00,
2013-02-16 04:49:00,12.1,8.5,30.34,NNW,341,1.1,1.1,85,0.00,CLR,SKC,0.00,WeatherDisplay:10.37,2013-02-16 10:49:00,
2013-02-16 04:54:00,12.1,8.5,30.34,NNW,341,0.0,0.0,85,0.00,CLR,SKC,0.00,WeatherDisplay:10.37,2013-02-16 10:54:00,
2013-02-16 04:59:00,12.1,8.5,30.33,NNW,341,0.0,0.0,85,0.00,CLR,SKC,0.00,WeatherDisplay:10.37,2013-02-16 10:59:00,
2013-02-16 05:04:00,11.9,8.3,30.34,NNW,341,1.1,1.1,85,0.00,CLR,SKC,0.00,WeatherDisplay:10.37,2013-02-16 11:04:00,
2013-02-16 05:09:00,12.1,8.5,30.34,NNW,341,2.3,2.3,85,0.00,CLR,SKC,0.00,WeatherDisplay:10.37,2013-02-16 11:09:00,
2013-02-16 05:14:00,12.1,8.5,30.33,NNW,341,0.0,0.0,85,0.00,CLR,SKC,0.00,WeatherDisplay:10.37,2013-02-16 11:14:00,
2013-02-16 05:19:00,12.1,8.5,30.33,NNW,341,0.0,0.0,85,0.00,CLR,SKC,0.00,WeatherDisplay:10.37,2013-02-16 11:19:00,
2013-02-16 05:24:00,11.9,8.3,30.33,NNW,341,0.0,0.0,85,0.00,CLR,SKC,0.00,WeatherDisplay:10.37,2013-02-16 11:24:00,
2013-02-16 05:29:00,11.7,8.1,30.33,NNW,341,0.0,0.0,85,0.00,CLR,SKC,0.00,WeatherDisplay:10.37,2013-02-16 11:29:00,
2013-02-16 05:34:00,11.6,8.0,30.33,NNW,341,0.0,0.0,85,0.00,CLR,SKC,0.00,WeatherDisplay:10.37,2013-02-16 11:34:00,
2013-02-16 05:39:00,11.7,8.1,30.33,NNW,341,0.0,0.0,85,0.00,CLR,SKC,0.00,WeatherDisplay:10.37,2013-02-16 11:39:00,
2013-02-16 05:44:00,11.6,7.7,30.33,NNW,341,1.1,0.0,84,0.00,CLR,SKC,0.00,WeatherDisplay:10.37,2013-02-16 11:44:00,
2013-02-16 05:49:00,11.2,7.3,30.33,NNW,341,0.0,0.0,84,0.00,CLR,SKC,0.00,WeatherDisplay:10.37,2013-02-16 11:49:00,
2013-02-16 06:01:00,11.4,7.8,30.33,NNW,341,0.0,0.0,85,0.00,CLR,SKC,0.00,WeatherDisplay:10.37,2013-02-16 12:01:00,
2013-02-16 06:06:00,11.4,7.8,30.33,NNW,341,1.1,0.0,85,0.00,CLR,SKC,0.00,WeatherDisplay:10.37,2013-02-16 12:06:00,
2013-02-16 06:11:00,11.6,8.0,30.33,NNW,341,0.0,0.0,85,0.00,CLR,SKC,0.00,WeatherDisplay:10.37,2013-02-16 12:11:00,
2013-02-16 06:16:00,11.6,8.0,30.33,NNW,341,0.0,0.0,85,0.00,CLR,SKC,0.00,WeatherDisplay:10.37,2013-02-16 12:16:00,
2013-02-16 06:21:00,11.4,7.5,30.32,NNW,341,1.1,1.1,84,0.00,CLR,SKC,0.00,WeatherDisplay:10.37,2013-02-16 12:21:00,
2013-02-16 06:26:00,10.9,7.0,30.32,NNW,340,2.3,2.3,84,0.00,CLR,SKC,0.00,WeatherDisplay:10.37,2013-02-16 12:26:00,
2013-02-16 06:31:00,10.7,6.8,30.33,NNW,340,1.1,1.1,84,0.00,CLR,SKC,0.00,WeatherDisplay:10.37,2013-02-16 12:31:00,
2013-02-16 06:36:00,10.5,6.6,30.32,NNW,340,0.0,0.0,84,0.00,CLR,SKC,0.00,WeatherDisplay:10.37,2013-02-16 12:36:00,
2013-02-16 06:41:00,10.5,6.6,30.32,NNW,340,1.1,1.1,84,0.00,CLR,SKC,0.00,WeatherDisplay:10.37,2013-02-16 12:41:00,
2013-02-16 06:46:00,10.5,6.6,30.32,NNW,340,1.1,0.0,84,0.00,CLR,SKC,0.00,WeatherDisplay:10.37,2013-02-16 12:46:00,
2013-02-16 06:51:00,10.5,6.6,30.32,NNW,340,0.0,0.0,84,0.00,CLR,SKC,0.00,WeatherDisplay:10.37,2013-02-16 12:51:00,
2013-02-16 06:56:00,10.7,6.8,30.31,NNW,340,1.1,1.1,84,0.00,CLR,SKC,0.00,WeatherDisplay:10.37,2013-02-16 12:56:00,
2013-02-16 07:01:00,10.9,7.3,30.31,NNW,340,1.1,0.0,85,0.00,CLR,SKC,0.00,WeatherDisplay:10.37,2013-02-16 13:01:00,
2013-02-16 07:06:00,11.1,7.2,30.30,NNW,340,2.3,2.3,84,0.00,CLR,SKC,0.00,WeatherDisplay:10.37,2013-02-16 13:06:00,
2013-02-16 07:11:00,11.2,7.3,30.30,NNW,339,2.3,2.3,84,0.00,CLR,SKC,0.00,WeatherDisplay:10.37,2013-02-16 13:11:00,
2013-02-16 07:16:00,11.2,7.3,30.30,NNW,339,1.1,0.0,84,0.00,CLR,SKC,0.00,WeatherDisplay:10.37,2013-02-16 13:16:00,
2013-02-16 07:21:00,11.2,7.3,30.30,NNW,339,0.0,0.0,84,0.00,CLR,SKC,0.00,WeatherDisplay:10.37,2013-02-16 13:21:00,
2013-02-16 07:26:00,11.2,7.3,30.30,NNW,339,0.0,0.0,84,0.00,CLR,SKC,0.00,WeatherDisplay:10.37,2013-02-16 13:26:00,
2013-02-16 07:31:00,11.2,7.3,30.30,NNW,339,0.0,0.0,84,0.00,CLR,SKC,0.00,WeatherDisplay:10.37,2013-02-16 13:31:00,
2013-02-16 07:36:00,11.4,7.5,30.30,NNW,339,0.0,0.0,84,0.00,CLR,SKC,0.00,WeatherDisplay:10.37,2013-02-16 13:36:00,
2013-02-16 07:41:00,11.4,7.5,30.29,NNW,339,2.3,2.3,84,0.00,CLR,SKC,0.00,WeatherDisplay:10.37,2013-02-16 13:41:00,
2013-02-16 07:46:00,11.6,7.7,30.29,NNW,337,2.3,2.3,84,0.00,CLR,SKC,0.00,WeatherDisplay:10.37,2013-02-16 13:46:00,
2013-02-16 07:51:00,11.7,8.1,30.29,NW,320,1.1,1.1,85,0.00,CLR,SKC,0.00,WeatherDisplay:10.37,2013-02-16 13:51:00,
2013-02-16 07:56:00,11.9,8.3,30.29,NW,320,2.1,2.1,85,0.00,CLR,SKC,0.00,WeatherDisplay:10.37,2013-02-16 13:56:00,
2013-02-16 08:01:00,12.1,8.5,30.28,NW,313,2.3,2.3,85,0.00,CLR,SKC,0.00,WeatherDisplay:10.37,2013-02-16 14:01:00,
2013-02-16 08:06:00,12.4,8.7,30.28,WSW,244,3.5,3.5,85,0.00,CLR,SKC,0.00,WeatherDisplay:10.37,2013-02-16 14:06:00,
2013-02-16 08:11:00,12.6,8.9,30.28,SW,234,3.5,3.5,85,0.00,CLR,SKC,0.00,WeatherDisplay:10.37,2013-02-16 14:11:00,
2013-02-16 08:16:00,12.8,9.1,30.28,SW,234,2.3,2.3,85,0.00,CLR,SKC,0.00,WeatherDisplay:10.37,2013-02-16 14:16:00,
2013-02-16 08:21:00,13.1,9.4,30.28,SW,226,2.3,2.3,85,0.00,CLR,SKC,0.00,WeatherDisplay:10.37,2013-02-16 14:21:00,
2013-02-16 08:26:00,13.6,9.9,30.28,SW,220,3.5,3.5,85,0.00,CLR,SKC,0.00,WeatherDisplay:10.37,2013-02-16 14:26:00,
2013-02-16 08:31:00,14.1,10.4,30.28,SW,220,3.5,3.5,85,0.00,CLR,SKC,0.00,WeatherDisplay:10.37,2013-02-16 14:31:00,
2013-02-16 08:36:00,14.4,10.7,30.27,SW,219,3.5,3.5,85,0.00,CLR,SKC,0.00,WeatherDisplay:10.37,2013-02-16 14:36:00,
2013-02-16 08:41:00,14.8,11.1,30.27,SW,217,3.5,3.5,85,0.00,CLR,SKC,0.00,WeatherDisplay:10.37,2013-02-16 14:41:00,
2013-02-16 08:46:00,15.1,11.4,30.27,SSW,209,3.5,3.5,85,0.00,CLR,SKC,0.00,WeatherDisplay:10.37,2013-02-16 14:46:00,
2013-02-16 08:51:00,15.6,12.2,30.26,SSW,209,1.1,0.0,86,0.00,CLR,SKC,0.00,WeatherDisplay:10.37,2013-02-16 14:51:00,
2013-02-16 08:56:00,16.2,12.7,30.26,SSW,209,3.2,3.2,86,0.00,CLR,SKC,0.00,WeatherDisplay:10.37,2013-02-16 14:56:00,
2013-02-16 09:01:00,16.2,12.5,30.26,South,185,5.3,5.3,85,0.00,CLR,SKC,0.00,WeatherDisplay:10.37,2013-02-16 15:01:00,
2013-02-16 09:06:00,16.2,12.5,30.26,South,185,1.1,1.1,85,0.00,CLR,SKC,0.00,WeatherDisplay:10.37,2013-02-16 15:06:00,
2013-02-16 09:11:00,16.5,12.8,30.26,South,185,3.5,3.5,85,0.00,CLR,SKC,0.00,WeatherDisplay:10.37,2013-02-16 15:11:00,
2013-02-16 09:16:00,16.9,13.2,30.26,South,185,3.5,3.5,85,0.00,CLR,SKC,0.00,WeatherDisplay:10.37,2013-02-16 15:16:00,
2013-02-16 09:21:00,17.2,13.7,30.26,South,185,4.6,4.6,86,0.00,CLR,SKC,0.00,WeatherDisplay:10.37,2013-02-16 15:21:00,
2013-02-16 09:26:00,17.5,13.8,30.26,South,185,3.2,3.2,85,0.00,CLR,SKC,0.00,WeatherDisplay:10.37,2013-02-16 15:26:00,
2013-02-16 09:31:00,17.7,14.0,30.26,South,185,2.3,2.3,85,0.00,CLR,SKC,0.00,WeatherDisplay:10.37,2013-02-16 15:31:00,
2013-02-16 09:36:00,18.0,14.3,30.25,South,185,3.5,3.5,85,0.00,CLR,SKC,0.00,WeatherDisplay:10.37,2013-02-16 15:36:00,
2013-02-16 09:41:00,18.4,14.6,30.25,South,185,1.1,1.1,85,0.00,CLR,SKC,0.00,WeatherDisplay:10.37,2013-02-16 15:41:00,
2013-02-16 09:46:00,19.1,15.6,30.25,South,185,3.2,3.2,86,0.00,CLR,SKC,0.00,WeatherDisplay:10.37,2013-02-16 15:46:00,
2013-02-16 09:51:00,19.7,15.9,30.25,South,185,3.5,3.5,85,0.00,CLR,SKC,0.00,WeatherDisplay:10.37,2013-02-16 15:51:00,
2013-02-16 09:56:00,20.2,16.4,30.24,South,185,1.1,1.1,85,0.00,CLR,SKC,0.00,WeatherDisplay:10.37,2013-02-16 15:56:00,
2013-02-16 10:01:00,21.0,17.2,30.24,South,185,4.2,4.2,85,0.00,CLR,SKC,0.00,WeatherDisplay:10.37,2013-02-16 16:01:00,
2013-02-16 10:06:00,21.4,17.6,30.24,South,185,5.3,5.3,85,0.00,CLR,SKC,0.00,WeatherDisplay:10.37,2013-02-16 16:06:00,
2013-02-16 10:11:00,22.2,18.1,30.23,South,186,3.5,3.5,84,0.00,CLR,SKC,0.00,WeatherDisplay:10.37,2013-02-16 16:11:00,
2013-02-16 10:16:00,23.0,18.6,30.23,South,186,3.5,3.5,83,0.00,CLR,SKC,0.00,WeatherDisplay:10.37,2013-02-16 16:16:00,
2013-02-16 10:21:00,23.6,18.6,30.22,SSW,202,5.8,5.8,81,0.00,CLR,SKC,0.00,WeatherDisplay:10.37,2013-02-16 16:21:00,
2013-02-16 10:26:00,24.2,18.9,30.22,SSW,199,3.5,3.5,80,0.01,RA,SKC,0.01,WeatherDisplay:10.37,2013-02-16 16:26:00,
2013-02-16 10:31:00,24.5,18.6,30.22,SSW,197,5.8,5.8,78,0.01,RA,SKC,0.01,WeatherDisplay:10.37,2013-02-16 16:31:00,
2013-02-16 10:36:00,25.1,19.2,30.22,SSW,192,3.2,3.2,78,0.01,,SKC,0.01,WeatherDisplay:10.37,2013-02-16 16:36:00,
2013-02-16 10:41:00,25.4,18.9,30.22,SW,230,6.9,6.9,76,0.01,CLR,SKC,0.01,WeatherDisplay:10.37,2013-02-16 16:41:00,
2013-02-16 10:47:00,25.7,18.9,30.22,SSW,197,7.4,7.4,75,0.01,CLR,SKC,0.01,WeatherDisplay:10.37,2013-02-16 16:47:00,
2013-02-16 10:52:00,25.8,18.7,30.21,SSW,206,6.4,6.4,74,0.02,RA,SKC,0.02,WeatherDisplay:10.37,2013-02-16 16:52:00,
2013-02-16 10:57:00,26.3,18.5,30.21,South,176,6.9,6.9,72,0.02,RA,SKC,0.02,WeatherDisplay:10.37,2013-02-16 16:57:00,
2013-02-16 11:02:00,26.4,18.3,30.22,SSW,206,8.1,8.1,71,0.02,,SKC,0.02,WeatherDisplay:10.37,2013-02-16 17:02:00,
2013-02-16 11:07:00,26.6,18.5,30.21,South,188,8.5,8.5,71,0.02,CLR,SKC,0.02,WeatherDisplay:10.37,2013-02-16 17:07:00,
2013-02-16 11:12:00,26.7,18.2,30.21,SSW,206,8.5,8.5,70,0.02,CLR,SKC,0.02,WeatherDisplay:10.37,2013-02-16 17:12:00,
2013-02-16 11:17:00,27.0,18.2,30.20,SW,220,5.8,5.8,69,0.02,CLR,SKC,0.02,WeatherDisplay:10.37,2013-02-16 17:17:00,
2013-02-16 11:22:00,27.5,18.7,30.21,South,176,9.5,9.5,69,0.02,CLR,SKC,0.02,WeatherDisplay:10.37,2013-02-16 17:22:00,
2013-02-16 11:27:00,27.5,18.7,30.20,South,189,7.4,7.4,69,0.02,RA,SKC,0.03,WeatherDisplay:10.37,2013-02-16 17:27:00,
2013-02-16 11:32:00,27.8,19.3,30.20,SSW,213,6.9,6.9,70,0.02,,SKC,0.03,WeatherDisplay:10.37,2013-02-16 17:32:00,
2013-02-16 11:37:00,27.9,19.4,30.20,SSW,203,7.4,7.4,70,0.02,CLR,SKC,0.03,WeatherDisplay:10.37,2013-02-16 17:37:00,
2013-02-16 11:42:00,27.9,19.4,30.19,SSW,192,6.4,6.4,70,0.02,CLR,SKC,0.03,WeatherDisplay:10.37,2013-02-16 17:42:00,
2013-02-16 11:47:00,27.9,19.4,30.19,SSW,192,6.9,6.9,70,0.02,CLR,SKC,0.03,WeatherDisplay:10.37,2013-02-16 17:47:00,
2013-02-16 11:52:00,28.1,19.6,30.19,SSW,196,6.9,6.9,70,0.01,CLR,SKC,0.03,WeatherDisplay:10.37,2013-02-16 17:52:00,
2013-02-16 11:57:00,28.2,19.7,30.19,South,189,8.5,8.5,70,0.01,CLR,SKC,0.03,WeatherDisplay:10.37,2013-02-16 17:57:00,
2013-02-16 12:02:00,28.4,19.9,30.19,South,190,7.4,7.4,70,0.01,CLR,SKC,0.03,WeatherDisplay:10.37,2013-02-16 18:02:00,
2013-02-16 12:07:00,28.5,20.0,30.18,SSW,202,6.9,6.9,70,0.01,CLR,SKC,0.03,WeatherDisplay:10.37,2013-02-16 18:07:00,
2013-02-16 12:12:00,28.7,20.1,30.18,South,182,7.4,7.4,70,0.01,CLR,SKC,0.03,WeatherDisplay:10.37,2013-02-16 18:12:00,
2013-02-16 12:17:00,28.5,19.6,30.18,SSW,192,10.4,10.4,69,0.01,CLR,SKC,0.03,WeatherDisplay:10.37,2013-02-16 18:17:00,
2013-02-16 12:22:00,28.8,19.9,30.17,SSW,206,8.1,8.1,69,0.00,CLR,SKC,0.03,WeatherDisplay:10.37,2013-02-16 18:22:00,
2013-02-16 12:27:00,29.0,20.1,30.17,SSW,204,6.4,6.4,69,0.01,RA,SKC,0.04,WeatherDisplay:10.37,2013-02-16 18:27:00,
2013-02-16 12:32:00,29.4,20.8,30.17,South,182,5.3,5.3,70,0.01,RA,SKC,0.04,WeatherDisplay:10.37,2013-02-16 18:32:00,
2013-02-16 12:37:00,29.4,20.8,30.17,SSW,199,7.4,7.4,70,0.01,,SKC,0.04,WeatherDisplay:10.37,2013-02-16 18:37:00,
2013-02-16 12:42:00,29.5,20.6,30.17,SW,221,7.4,7.4,69,0.01,CLR,SKC,0.04,WeatherDisplay:10.37,2013-02-16 18:42:00,
2013-02-16 12:47:00,29.8,20.9,30.16,SSW,204,10.4,10.4,69,0.01,CLR,SKC,0.04,WeatherDisplay:10.37,2013-02-16 18:47:00,
2013-02-16 12:52:00,30.1,20.8,30.16,WSW,252,8.5,8.5,68,0.01,CLR,SKC,0.04,WeatherDisplay:10.37,2013-02-16 18:52:00,
2013-02-16 12:57:00,30.3,21.0,30.16,South,183,7.4,7.4,68,0.01,CLR,SKC,0.04,WeatherDisplay:10.37,2013-02-16 18:57:00,
2013-02-16 13:02:00,30.6,21.6,30.16,WSW,247,10.6,10.6,69,0.01,CLR,SKC,0.04,WeatherDisplay:10.37,2013-02-16 19:02:00,
2013-02-16 13:07:00,30.6,21.6,30.16,SW,214,10.6,10.6,69,0.01,CLR,SKC,0.04,WeatherDisplay:10.37,2013-02-16 19:07:00,
2013-02-16 13:12:00,30.7,21.7,30.16,SSW,197,6.9,6.9,69,0.01,CLR,SKC,0.04,WeatherDisplay:10.37,2013-02-16 19:12:00,
2013-02-16 13:17:00,30.9,22.3,30.15,South,182,7.4,7.4,70,0.01,CLR,SKC,0.04,WeatherDisplay:10.37,2013-02-16 19:17:00,
2013-02-16 13:22:00,31.0,22.0,30.15,SSW,206,6.4,6.4,69,0.01,CLR,SKC,0.04,WeatherDisplay:10.37,2013-02-16 19:22:00,
2013-02-16 13:27:00,30.9,21.6,30.14,SSW,197,8.5,8.5,68,0.00,CLR,SKC,0.04,WeatherDisplay:10.37,2013-02-16 19:27:00,
2013-02-16 13:32:00,31.0,22.0,30.14,WSW,241,6.9,6.9,69,0.00,CLR,SKC,0.04,WeatherDisplay:10.37,2013-02-16 19:32:00,
2013-02-16 13:37:00,31.0,22.0,30.14,SSW,193,6.4,6.4,69,0.00,CLR,SKC,0.04,WeatherDisplay:10.37,2013-02-16 19:37:00,
2013-02-16 13:42:00,31.0,22.0,30.14,South,186,8.5,8.5,69,0.00,CLR,SKC,0.04,WeatherDisplay:10.37,2013-02-16 19:42:00,
2013-02-16 13:47:00,31.0,21.7,30.14,SW,219,6.9,6.9,68,0.00,CLR,SKC,0.04,WeatherDisplay:10.37,2013-02-16 19:47:00,
2013-02-16 13:52:00,31.2,22.2,30.13,SSE,164,8.5,8.5,69,0.00,CLR,SKC,0.04,WeatherDisplay:10.37,2013-02-16 19:52:00,
2013-02-16 13:57:00,31.0,22.0,30.13,South,175,6.9,6.9,69,0.00,CLR,SKC,0.04,WeatherDisplay:10.37,2013-02-16 19:57:00,
2013-02-16 14:02:00,31.0,22.4,30.13,South,176,5.8,5.8,70,0.00,CLR,SKC,0.04,WeatherDisplay:10.37,2013-02-16 20:02:00,
2013-02-16 14:07:00,31.0,22.4,30.13,SSW,202,6.9,6.9,70,0.00,CLR,SKC,0.04,WeatherDisplay:10.37,2013-02-16 20:07:00,
2013-02-16 14:12:00,30.9,22.3,30.13,SSE,164,7.4,7.4,70,0.00,CLR,SKC,0.04,WeatherDisplay:10.37,2013-02-16 20:12:00,
2013-02-16 14:17:00,30.9,22.3,30.12,SSE,164,6.9,6.9,70,0.00,CLR,SKC,0.04,WeatherDisplay:10.37,2013-02-16 20:17:00,
2013-02-16 14:22:00,30.9,22.3,30.12,South,183,7.4,7.4,70,0.00,CLR,SKC,0.04,WeatherDisplay:10.37,2013-02-16 20:22:00,
2013-02-16 14:27:00,31.0,22.4,30.12,South,172,5.8,5.8,70,0.00,CLR,SKC,0.04,WeatherDisplay:10.37,2013-02-16 20:27:00,
2013-02-16 14:32:00,31.2,22.5,30.12,South,188,8.5,8.5,70,0.00,CLR,SKC,0.04,WeatherDisplay:10.37,2013-02-16 20:32:00,
2013-02-16 14:37:00,31.2,21.9,30.12,South,186,6.9,6.9,68,0.00,CLR,SKC,0.04,WeatherDisplay:10.37,2013-02-16 20:37:00,
2013-02-16 14:42:00,31.3,22.0,30.12,South,189,8.5,8.5,68,0.00,CLR,SKC,0.04,WeatherDisplay:10.37,2013-02-16 20:42:00,
2013-02-16 14:47:00,31.6,21.9,30.12,South,175,6.9,6.9,67,0.00,CLR,SKC,0.04,WeatherDisplay:10.37,2013-02-16 20:47:00,
2013-02-16 14:52:00,31.9,22.2,30.12,South,182,9.2,9.2,67,0.00,CLR,SKC,0.04,WeatherDisplay:10.37,2013-02-16 20:52:00,
2013-02-16 14:57:00,32.2,22.5,30.11,SE,144,12.7,12.7,67,0.00,CLR,SKC,0.04,WeatherDisplay:10.37,2013-02-16 20:57:00,
2013-02-16 15:02:00,32.7,22.9,30.12,South,176,10.6,10.6,67,0.00,CLR,SKC,0.04,WeatherDisplay:10.37,2013-02-16 21:02:00,
2013-02-16 15:07:00,33.1,23.0,30.12,SSE,158,9.5,9.5,66,0.00,CLR,SKC,0.04,WeatherDisplay:10.37,2013-02-16 21:07:00,
2013-02-16 15:12:00,32.9,23.1,30.11,SSW,206,10.6,10.6,67,0.00,CLR,SKC,0.04,WeatherDisplay:10.37,2013-02-16 21:12:00,
2013-02-16 15:17:00,32.9,23.1,30.11,South,189,6.9,6.9,67,0.00,CLR,SKC,0.04,WeatherDisplay:10.37,2013-02-16 21:17:00,
2013-02-16 15:22:00,32.9,23.1,30.11,SSE,166,8.1,8.1,67,0.00,CLR,SKC,0.04,WeatherDisplay:10.37,2013-02-16 21:22:00,
2013-02-16 15:28:00,32.9,23.1,30.12,SSE,159,7.4,7.4,67,0.00,CLR,SKC,0.04,WeatherDisplay:10.37,2013-02-16 21:28:00,
2013-02-16 15:33:00,32.9,23.5,30.11,SSE,165,7.4,7.4,68,0.00,CLR,SKC,0.04,WeatherDisplay:10.37,2013-02-16 21:33:00,
2013-02-16 15:38:00,32.9,23.5,30.12,South,183,5.3,5.3,68,0.00,CLR,SKC,0.04,WeatherDisplay:10.37,2013-02-16 21:38:00,
2013-02-16 15:43:00,33.1,23.3,30.12,South,186,10.6,10.6,67,0.00,CLR,SKC,0.04,WeatherDisplay:10.37,2013-02-16 21:43:00,
2013-02-16 15:48:00,32.9,23.8,30.12,SSE,154,6.9,6.9,69,0.00,CLR,SKC,0.04,WeatherDisplay:10.37,2013-02-16 21:48:00,
2013-02-16 15:53:00,32.9,23.8,30.12,South,169,6.9,6.9,69,0.00,CLR,SKC,0.04,WeatherDisplay:10.37,2013-02-16 21:53:00,
2013-02-16 15:58:00,32.8,23.7,30.12,SE,128,7.4,7.4,69,0.00,CLR,SKC,0.04,WeatherDisplay:10.37,2013-02-16 21:58:00,
2013-02-16 16:03:00,32.8,23.7,30.12,SSE,147,7.4,7.4,69,0.00,CLR,SKC,0.04,WeatherDisplay:10.37,2013-02-16 22:03:00,
2013-02-16 16:08:00,32.8,23.7,30.12,SSE,156,8.5,8.5,69,0.00,CLR,SKC,0.04,WeatherDisplay:10.37,2013-02-16 22:08:00,
2013-02-16 16:13:00,32.7,23.6,30.11,SSE,148,10.6,10.6,69,0.00,CLR,SKC,0.04,WeatherDisplay:10.37,2013-02-16 22:13:00,
2013-02-16 16:18:00,32.5,23.5,30.11,SSE,164,6.9,6.9,69,0.00,CLR,SKC,0.04,WeatherDisplay:10.37,2013-02-16 22:18:00,
2013-02-16 16:23:00,32.5,23.5,30.11,SSE,161,9.2,9.2,69,0.00,CLR,SKC,0.04,WeatherDisplay:10.37,2013-02-16 22:23:00,
2013-02-16 16:28:00,32.5,23.5,30.11,SE,130,8.5,8.5,69,0.00,CLR,SKC,0.04,WeatherDisplay:10.37,2013-02-16 22:28:00,
2013-02-16 16:33:00,32.4,23.0,30.11,SE,140,10.6,10.6,68,0.00,CLR,SKC,0.04,WeatherDisplay:10.37,2013-02-16 22:33:00,
2013-02-16 16:38:00,32.4,23.4,30.11,SE,125,11.7,11.7,69,0.00,CLR,SKC,0.04,WeatherDisplay:10.37,2013-02-16 22:38:00,
2013-02-16 16:43:00,32.2,23.2,30.11,SE,144,11.7,11.7,69,0.00,CLR,SKC,0.04,WeatherDisplay:10.37,2013-02-16 22:43:00,
2013-02-16 16:48:00,32.2,23.2,30.11,SE,142,11.7,11.7,69,0.00,CLR,SKC,0.04,WeatherDisplay:10.37,2013-02-16 22:48:00,
2013-02-16 16:53:00,32.1,23.1,30.10,SE,134,13.8,13.8,69,0.00,CLR,SKC,0.04,WeatherDisplay:10.37,2013-02-16 22:53:00,
2013-02-16 16:58:00,31.9,23.2,30.10,SE,144,12.7,12.7,70,0.00,CLR,SKC,0.04,WeatherDisplay:10.37,2013-02-16 22:58:00,
2013-02-16 17:03:00,31.8,23.1,30.10,SE,142,11.7,11.7,70,0.00,CLR,SKC,0.04,WeatherDisplay:10.37,2013-02-16 23:03:00,
2013-02-16 17:08:00,31.8,23.1,30.10,SE,142,10.6,10.6,70,0.00,CLR,SKC,0.04,WeatherDisplay:10.37,2013-02-16 23:08:00,
2013-02-16 17:13:00,31.6,23.3,30.10,SE,135,10.6,10.6,71,0.00,CLR,SKC,0.04,WeatherDisplay:10.37,2013-02-16 23:13:00,
2013-02-16 17:18:00,31.6,23.3,30.10,SE,144,12.7,12.7,71,0.00,CLR,SKC,0.04,WeatherDisplay:10.37,2013-02-16 23:18:00,
2013-02-16 17:23:00,31.6,23.3,30.10,SSE,158,10.6,10.6,71,0.00,CLR,SKC,0.04,WeatherDisplay:10.37,2013-02-16 23:23:00,
2013-02-16 17:28:00,31.5,23.2,30.09,SE,131,11.7,11.7,71,0.00,CLR,SKC,0.04,WeatherDisplay:10.37,2013-02-16 23:28:00,
2013-02-16 17:33:00,31.5,23.2,30.09,SE,137,11.7,11.7,71,0.00,CLR,SKC,0.04,WeatherDisplay:10.37,2013-02-16 23:33:00,
2013-02-16 17:38:00,31.5,23.2,30.09,SSE,149,8.5,8.5,71,0.00,CLR,SKC,0.04,WeatherDisplay:10.37,2013-02-16 23:38:00,
2013-02-16 17:43:00,31.3,23.3,30.09,SE,140,9.2,9.2,72,0.00,CLR,SKC,0.04,WeatherDisplay:10.37,2013-02-16 23:43:00,
2013-02-16 17:48:00,31.3,23.3,30.09,SE,144,11.5,11.5,72,0.00,CLR,SKC,0.04,WeatherDisplay:10.37,2013-02-16 23:48:00,
2013-02-16 17:53:00,31.2,23.2,30.09,SE,135,8.5,8.5,72,0.00,CLR,SKC,0.04,WeatherDisplay:10.37,2013-02-16 23:53:00,
2013-02-16 17:58:00,31.0,23.4,30.09,SE,125,11.5,11.5,73,0.00,CLR,SKC,0.04,WeatherDisplay:10.37,2013-02-16 23:58:00,
2013-02-16 18:03:00,31.0,23.7,30.09,SSE,151,11.7,11.7,74,0.00,CLR,SKC,0.04,WeatherDisplay:10.37,2013-02-17 00:03:00,
2013-02-16 18:08:00,31.0,23.7,30.09,SSE,149,10.6,10.6,74,0.00,CLR,SKC,0.04,WeatherDisplay:10.37,2013-02-17 00:08:00,
2013-02-16 18:13:00,30.9,23.6,30.09,SE,127,11.7,11.7,74,0.00,CLR,SKC,0.04,WeatherDisplay:10.37,2013-02-17 00:13:00,
2013-02-16 18:18:00,30.7,23.4,30.09,SE,141,10.6,10.6,74,0.00,CLR,SKC,0.04,WeatherDisplay:10.37,2013-02-17 00:18:00,
2013-02-16 18:23:00,30.7,23.7,30.09,SE,145,10.6,10.6,75,0.00,CLR,SKC,0.04,WeatherDisplay:10.37,2013-02-17 00:23:00,
2013-02-16 18:28:00,30.7,23.7,30.09,SE,142,10.6,10.6,75,0.00,CLR,SKC,0.04,WeatherDisplay:10.37,2013-02-17 00:28:00,
2013-02-16 18:33:00,30.7,23.7,30.09,SE,134,10.4,10.4,75,0.00,CLR,SKC,0.04,WeatherDisplay:10.37,2013-02-17 00:33:00,
2013-02-16 18:38:00,30.7,23.4,30.09,SE,134,11.5,11.5,74,0.00,CLR,SKC,0.04,WeatherDisplay:10.37,2013-02-17 00:38:00,
2013-02-16 18:43:00,30.7,23.4,30.09,SE,130,13.8,13.8,74,0.00,CLR,SKC,0.04,WeatherDisplay:10.37,2013-02-17 00:43:00,
2013-02-16 18:48:00,30.7,23.4,30.09,SSE,147,8.5,8.5,74,0.00,CLR,SKC,0.04,WeatherDisplay:10.37,2013-02-17 00:48:00,
2013-02-16 18:53:00,30.7,23.1,30.09,SE,144,10.4,10.4,73,0.00,CLR,SKC,0.04,WeatherDisplay:10.37,2013-02-17 00:53:00,
2013-02-16 18:58:00,30.7,23.1,30.09,SE,130,11.7,11.7,73,0.00,CLR,SKC,0.04,WeatherDisplay:10.37,2013-02-17 00:58:00,
2013-02-16 19:03:00,30.7,23.4,30.09,SE,140,7.4,7.4,74,0.00,CLR,SKC,0.04,WeatherDisplay:10.37,2013-02-17 01:03:00,
2013-02-16 19:08:00,30.7,23.1,30.09,SE,142,9.5,9.5,73,0.00,CLR,SKC,0.04,WeatherDisplay:10.37,2013-02-17 01:08:00,
2013-02-16 19:13:00,30.7,22.7,30.09,SE,141,11.7,11.7,72,0.00,CLR,SKC,0.04,WeatherDisplay:10.37,2013-02-17 01:13:00,
2013-02-16 19:18:00,30.9,22.9,30.08,SE,135,11.5,11.5,72,0.00,CLR,SKC,0.04,WeatherDisplay:10.37,2013-02-17 01:18:00,
2013-02-16 19:23:00,30.9,22.9,30.08,SE,137,10.4,10.4,72,0.00,CLR,SKC,0.04,WeatherDisplay:10.37,2013-02-17 01:23:00,
2013-02-16 19:28:00,30.9,22.9,30.08,SE,131,9.5,9.5,72,0.00,CLR,SKC,0.04,WeatherDisplay:10.37,2013-02-17 01:28:00,
2013-02-16 19:33:00,30.9,22.9,30.08,SE,137,11.5,11.5,72,0.00,CLR,SKC,0.04,WeatherDisplay:10.37,2013-02-17 01:33:00,
2013-02-16 19:38:00,30.9,22.9,30.08,SE,132,8.5,8.5,72,0.00,CLR,SKC,0.04,WeatherDisplay:10.37,2013-02-17 01:38:00,
2013-02-16 19:43:00,30.9,22.9,30.08,SE,131,8.5,8.5,72,0.00,CLR,SKC,0.04,WeatherDisplay:10.37,2013-02-17 01:43:00,
2013-02-16 19:48:00,30.9,22.9,30.08,SE,141,12.7,12.7,72,0.00,CLR,SKC,0.04,WeatherDisplay:10.37,2013-02-17 01:48:00,
2013-02-16 19:53:00,30.9,22.9,30.08,SE,138,8.5,8.5,72,0.00,CLR,SKC,0.04,WeatherDisplay:10.37,2013-02-17 01:53:00,
2013-02-16 19:58:00,31.0,23.0,30.08,SE,137,11.7,11.7,72,0.00,CLR,SKC,0.04,WeatherDisplay:10.37,2013-02-17 01:58:00,
2013-02-16 20:03:00,31.0,22.7,30.07,SE,137,9.2,9.2,71,0.00,CLR,SKC,0.04,WeatherDisplay:10.37,2013-02-17 02:03:00,
2013-02-16 20:08:00,31.0,23.0,30.07,SE,145,8.5,8.5,72,0.00,CLR,SKC,0.04,WeatherDisplay:10.37,2013-02-17 02:08:00,
2013-02-16 20:13:00,31.0,22.7,30.07,SE,137,8.5,8.5,71,0.00,CLR,SKC,0.04,WeatherDisplay:10.37,2013-02-17 02:13:00,
2013-02-16 20:18:00,31.0,23.0,30.07,SE,137,8.5,8.5,72,0.00,CLR,SKC,0.04,WeatherDisplay:10.37,2013-02-17 02:18:00,
2013-02-16 20:23:00,31.0,23.0,30.07,SE,134,8.5,8.5,72,0.00,CLR,SKC,0.04,WeatherDisplay:10.37,2013-02-17 02:23:00,
2013-02-16 20:28:00,31.0,23.0,30.07,SE,131,8.1,8.1,72,0.00,CLR,SKC,0.04,WeatherDisplay:10.37,2013-02-17 02:28:00,
2013-02-16 20:33:00,31.0,23.0,30.08,SE,131,7.4,7.4,72,0.00,CLR,SKC,0.04,WeatherDisplay:10.37,2013-02-17 02:33:00,
2013-02-16 20:38:00,31.0,23.0,30.08,SE,128,7.4,7.4,72,0.00,CLR,SKC,0.04,WeatherDisplay:10.37,2013-02-17 02:38:00,
2013-02-16 20:43:00,31.0,23.0,30.07,SE,128,8.5,8.5,72,0.00,CLR,SKC,0.04,WeatherDisplay:10.37,2013-02-17 02:43:00,
2013-02-16 20:49:00,31.0,23.4,30.07,ESE,120,10.6,10.6,73,0.00,CLR,SKC,0.04,WeatherDisplay:10.37,2013-02-17 02:49:00,
2013-02-16 20:54:00,31.0,23.4,30.07,SE,127,10.6,10.6,73,0.00,CLR,SKC,0.04,WeatherDisplay:10.37,2013-02-17 02:54:00,
2013-02-16 20:59:00,31.0,23.7,30.07,SE,130,6.9,6.9,74,0.00,CLR,SKC,0.04,WeatherDisplay:10.37,2013-02-17 02:59:00,
2013-02-16 21:04:00,31.0,23.7,30.07,SE,137,8.5,8.5,74,0.00,CLR,SKC,0.04,WeatherDisplay:10.37,2013-02-17 03:04:00,
2013-02-16 21:09:00,31.0,23.7,30.06,SE,128,10.4,10.4,74,0.00,CLR,SKC,0.04,WeatherDisplay:10.37,2013-02-17 03:09:00,
2013-02-16 21:14:00,31.0,23.7,30.06,SE,132,10.4,10.4,74,0.00,CLR,SKC,0.04,WeatherDisplay:10.37,2013-02-17 03:14:00,
2013-02-16 21:19:00,31.0,24.0,30.07,SE,125,8.5,8.5,75,0.00,CLR,SKC,0.04,WeatherDisplay:10.37,2013-02-17 03:19:00,
2013-02-16 21:24:00,31.0,24.0,30.07,SE,145,8.1,8.1,75,0.00,CLR,SKC,0.04,WeatherDisplay:10.37,2013-02-17 03:24:00,
2013-02-16 21:29:00,31.0,24.0,30.07,SE,131,7.4,7.4,75,0.00,CLR,SKC,0.04,WeatherDisplay:10.37,2013-02-17 03:29:00,
2013-02-16 21:34:00,31.0,24.0,30.07,SE,132,6.9,6.9,75,0.00,CLR,SKC,0.04,WeatherDisplay:10.37,2013-02-17 03:34:00,
2013-02-16 21:39:00,31.0,24.3,30.07,SE,134,7.4,7.4,76,0.00,CLR,SKC,0.04,WeatherDisplay:10.37,2013-02-17 03:39:00,
2013-02-16 21:44:00,30.9,24.2,30.07,SE,130,7.4,7.4,76,0.00,CLR,SKC,0.04,WeatherDisplay:10.37,2013-02-17 03:44:00,
2013-02-16 21:49:00,30.9,24.2,30.06,SE,135,6.9,6.9,76,0.00,CLR,SKC,0.04,WeatherDisplay:10.37,2013-02-17 03:49:00,
2013-02-16 21:54:00,30.9,24.2,30.06,SE,138,7.4,7.4,76,0.00,CLR,SKC,0.04,WeatherDisplay:10.37,2013-02-17 03:54:00,
2013-02-16 21:59:00,30.9,23.9,30.06,SE,145,7.4,7.4,75,0.00,CLR,SKC,0.04,WeatherDisplay:10.37,2013-02-17 03:59:00,
2013-02-16 22:04:00,30.9,23.9,30.05,SE,134,8.5,8.5,75,0.00,CLR,SKC,0.04,WeatherDisplay:10.37,2013-02-17 04:04:00,
2013-02-16 22:09:00,30.9,23.9,30.05,SE,132,7.4,7.4,75,0.00,CLR,SKC,0.04,WeatherDisplay:10.37,2013-02-17 04:09:00,
2013-02-16 22:14:00,30.9,23.9,30.05,SE,131,9.2,9.2,75,0.00,CLR,SKC,0.04,WeatherDisplay:10.37,2013-02-17 04:14:00,
2013-02-16 22:19:00,30.9,23.9,30.05,SE,127,6.9,6.9,75,0.00,CLR,SKC,0.04,WeatherDisplay:10.37,2013-02-17 04:19:00,
2013-02-16 22:24:00,30.9,23.9,30.05,SE,145,8.5,8.5,75,0.00,CLR,SKC,0.04,WeatherDisplay:10.37,2013-02-17 04:24:00,
2013-02-16 22:29:00,30.9,23.6,30.05,SE,137,8.5,8.5,74,0.00,CLR,SKC,0.04,WeatherDisplay:10.37,2013-02-17 04:29:00,
2013-02-16 22:34:00,30.9,23.6,30.04,SSE,151,10.4,10.4,74,0.00,CLR,SKC,0.04,WeatherDisplay:10.37,2013-02-17 04:34:00,
2013-02-16 22:39:00,30.9,23.6,30.04,SE,141,7.4,7.4,74,0.00,CLR,SKC,0.04,WeatherDisplay:10.37,2013-02-17 04:39:00,
2013-02-16 22:44:00,30.9,23.3,30.04,SE,142,4.2,4.2,73,0.00,CLR,SKC,0.04,WeatherDisplay:10.37,2013-02-17 04:44:00,
2013-02-16 22:49:00,30.7,23.1,30.04,SE,125,7.4,7.4,73,0.00,CLR,SKC,0.04,WeatherDisplay:10.37,2013-02-17 04:49:00,
2013-02-16 22:54:00,30.6,23.0,30.04,SE,142,7.4,7.4,73,0.00,CLR,SKC,0.04,WeatherDisplay:10.37,2013-02-17 04:54:00,
2013-02-16 22:59:00,30.4,22.8,30.04,SE,137,6.9,6.9,73,0.00,CLR,SKC,0.04,WeatherDisplay:10.37,2013-02-17 04:59:00,
2013-02-16 23:00:00,30.4,22.8,30.04,SE,137,6.9,6.9,73,0.00,CLR,SKC,0.04,WeatherDisplay:10.37,2013-02-17 05:00:00,
2013-02-16 23:05:00,30.3,22.7,30.04,SE,142,6.9,6.9,73,0.00,CLR,SKC,0.04,WeatherDisplay:10.37,2013-02-17 05:05:00,
2013-02-16 23:10:00,30.1,22.5,30.03,SE,131,8.5,8.5,73,0.00,CLR,SKC,0.04,WeatherDisplay:10.37,2013-02-17 05:10:00,
2013-02-16 23:15:00,30.0,22.7,30.03,SE,138,6.9,6.9,74,0.00,CLR,SKC,0.04,WeatherDisplay:10.37,2013-02-17 05:15:00,
2013-02-16 23:20:00,29.7,22.4,30.03,SE,132,6.9,6.9,74,0.00,CLR,SKC,0.04,WeatherDisplay:10.37,2013-02-17 05:20:00,
2013-02-16 23:25:00,29.4,22.5,30.04,SE,137,4.2,4.2,75,0.00,CLR,SKC,0.04,WeatherDisplay:10.37,2013-02-17 05:25:00,
2013-02-16 23:30:00,29.1,22.2,30.03,SE,137,4.2,4.2,75,0.00,CLR,SKC,0.04,WeatherDisplay:10.37,2013-02-17 05:30:00,
2013-02-16 23:35:00,29.0,22.4,30.03,SE,137,6.9,6.9,76,0.00,CLR,SKC,0.04,WeatherDisplay:10.37,2013-02-17 05:35:00,
2013-02-16 23:40:00,29.0,22.4,30.03,SE,137,5.3,5.3,76,0.00,CLR,SKC,0.04,WeatherDisplay:10.37,2013-02-17 05:40:00,
2013-02-16 23:45:00,28.8,22.2,30.03,SE,137,4.6,4.6,76,0.00,CLR,SKC,0.04,WeatherDisplay:10.37,2013-02-17 05:45:00,
2013-02-16 23:50:00,28.7,22.1,30.03,SE,137,3.5,3.5,76,0.00,CLR,SKC,0.04,WeatherDisplay:10.37,2013-02-17 05:50:00,
2013-02-16 23:56:00,28.4,21.8,30.03,SE,137,3.5,3.5,76,0.00,CLR,SKC,0.04,WeatherDisplay:10.37,2013-02-17 05:56:00,